Aguada De Pasajeros, Cuba

10:05 AM CDT on September 02, 2014 (GMT -0400)
Juan G. Gomez International | Change Station
CLOSE
Current Station
Airport
Location: Varadero,
Elevation: 213 ft
Nearby Weather Stations

Elev 213 ft 23.03 °N, 81.44 °W | Updated 14 minutes ago

Scattered Clouds
Scattered Clouds
84 °F
Feels Like 91 °F
N
8
Wind Variable Wind from ESE

Today
High -- | Low -- °F
--% Chance of Precip.
Yesterday
High -- | Low -- °F
Precip. -- in
7:06 AM 7:39 PM
First Quarter, 51% visible
Pressure 30.06 in
Visibility 6.2 miles
Clouds Scattered Clouds 2000 ft
Heat Index 91 °F
Dew Point 73 °F
Humidity 70%
Rainfall 0.00 in
Snow Depth Not available.
UV 5 out of 12
Pollen Not available.
Air Quality Not available.
Flu Activity Not available.
METAR MUVR 021351Z 12007KT 090V160 9999 SCT020 29/23 Q1018

More Conditions Fewer Conditions

Pressure 30.06 in
Visibility 6.2 miles
Clouds Scattered Clouds 2000 ft
Heat Index 91 °F
Dew Point 73 °F
Humidity 70%
Rainfall 0.00 in
Snow Depth Not available.
UV 5 out of 12
Pollen Not available.
Air Quality Not available.
Flu Activity Not available.
METAR MUVR 021351Z 12007KT 090V160 9999 SCT020 29/23 Q1018

More Conditions Fewer Conditions

10-Day Weather Forecast

Almanac

Astronomy

Sep. 02, 2014 Rise Set
Actual Time 7:06 AM CDT 7:39 PM CDT
Civil Twilight 6:43 AM CDT 8:01 PM CDT
Nautical Twilight 6:17 AM CDT 8:28 PM CDT
Astronomical Twilight 5:50 AM CDT 8:55 PM CDT
Moon 2:00 PM CDT 12:27 AM CDT
Length of Visible Light 13h 18m
Length of Day
12h 32m
Tomorrow will be 1m 14s shorter.
First Quarter, 51% of the Moon is Illuminated
Today
First Quarter
Sep 8
Full
Sep 15
Last Quarter
Sep 24
New
Oct 1
First Quarter

Yesterday's Extremes

Country Highs Country Lows

Community

WunderPhotos

Upload Photos

1,749,670 photos uploaded!

WunderBlogs® & News

Nearby

Snow Depth

Not available.

Earthquake Activity

City Distance Mag. Time & Date
No recent earthquake activity has been reported nearby.
Minimum magnitude displayed is 2.5.

Coastal Water Temperatures

Place Temperature
No Stations Reporting

Nearby Weather Stations